Time;durP1;ratioP1;P1;durP2;ratioP2;P2;SDS_P1;SDS_P2;PMS_P1;PMS_P2;Temp;Humidity;BMP_temperature;BMP_pressure;BME280_temperature;BME280_humidity;BME280_pressure;Samples;Min_cycle;Max_cycle;Signal;HPM_P1;HPM_P2
2023/12/22 00:00:51;;;;;;;3.55;0.95;;;10.80;99.90;;;;;;5114046;28;20020;-81
2023/12/22 00:03:17;;;;;;;3.92;1.15;;;10.80;99.90;;;;;;5133640;28;20023;-80
2023/12/22 00:05:43;;;;;;;3.05;1.27;;;10.80;99.90;;;;;;5134895;28;20034;-79
2023/12/22 00:08:09;;;;;;;3.75;1.30;;;10.80;99.90;;;;;;5114596;28;20029;-81
2023/12/22 00:10:34;;;;;;;5.25;1.10;;;10.90;99.90;;;;;;5131972;28;20415;-80
2023/12/22 00:13:00;;;;;;;2.55;1.30;;;10.90;99.90;;;;;;5130677;28;20031;-81
2023/12/22 00:15:26;;;;;;;3.28;1.08;;;10.90;99.90;;;;;;5131521;28;20023;-80
2023/12/22 00:17:51;;;;;;;3.13;1.10;;;10.90;99.90;;;;;;5131527;28;20043;-79
2023/12/22 00:20:18;;;;;;;4.85;1.08;;;10.90;99.90;;;;;;5131060;28;20034;-79
2023/12/22 00:22:44;;;;;;;2.53;0.88;;;10.90;99.90;;;;;;5113618;28;20023;-79
2023/12/22 00:25:10;;;;;;;2.70;1.30;;;10.80;99.90;;;;;;5113776;28;20462;-80
2023/12/22 00:27:35;;;;;;;2.13;1.10;;;10.80;99.90;;;;;;5131936;28;20385;-80
2023/12/22 00:30:01;;;;;;;2.72;0.73;;;10.70;99.90;;;;;;5130961;28;20026;-79
2023/12/22 00:32:27;;;;;;;3.20;1.00;;;10.70;99.90;;;;;;5130940;28;20027;-79
2023/12/22 00:34:53;;;;;;;1.85;0.90;;;10.60;99.90;;;;;;5131273;28;20027;-80
2023/12/22 00:37:18;;;;;;;3.20;1.10;;;10.60;99.90;;;;;;5131197;28;20034;-79
2023/12/22 00:39:44;;;;;;;5.20;1.23;;;10.60;99.90;;;;;;5131675;28;20417;-79
2023/12/22 00:42:10;;;;;;;4.53;1.00;;;10.60;99.90;;;;;;5112408;28;20031;-80
2023/12/22 00:44:35;;;;;;;1.42;0.75;;;10.50;99.90;;;;;;5131679;28;20027;-80
2023/12/22 00:47:01;;;;;;;3.58;0.63;;;10.50;99.90;;;;;;5130927;28;20023;-81
2023/12/22 00:49:27;;;;;;;1.02;0.60;;;10.50;99.90;;;;;;5131512;28;20022;-80
2023/12/22 00:51:52;;;;;;;3.17;0.70;;;10.50;99.90;;;;;;5113089;28;20047;-81
2023/12/22 00:54:18;;;;;;;4.30;0.70;;;10.50;99.90;;;;;;5131739;28;20500;-80
2023/12/22 00:56:44;;;;;;;3.42;0.88;;;10.50;99.90;;;;;;5131768;28;20037;-80
2023/12/22 00:59:09;;;;;;;3.95;0.93;;;10.50;99.90;;;;;;5131847;27;20088;-80
2023/12/22 01:01:35;;;;;;;2.25;0.75;;;10.60;99.90;;;;;;5135267;27;20061;-79
2023/12/22 01:04:01;;;;;;;1.55;0.73;;;10.50;99.90;;;;;;5135174;27;20444;-81
2023/12/22 01:06:26;;;;;;;2.90;0.90;;;10.60;99.90;;;;;;5134928;27;20019;-81
2023/12/22 01:08:52;;;;;;;2.47;0.82;;;10.50;99.90;;;;;;5135586;27;20015;-81
2023/12/22 01:11:18;;;;;;;9.63;1.30;;;10.50;99.90;;;;;;5134146;27;20122;-80
2023/12/22 01:13:44;;;;;;;5.07;1.08;;;10.50;99.90;;;;;;5116274;27;20118;-82
2023/12/22 01:16:10;;;;;;;4.55;1.40;;;10.50;99.90;;;;;;5133484;27;20027;-79
2023/12/22 01:18:36;;;;;;;3.40;1.20;;;10.60;99.90;;;;;;5116430;27;20023;-79
2023/12/22 01:21:01;;;;;;;5.07;1.45;;;10.60;99.90;;;;;;5133709;27;20055;-80
2023/12/22 01:23:27;;;;;;;6.65;1.50;;;10.50;99.90;;;;;;5133799;27;20178;-79
2023/12/22 01:25:53;;;;;;;8.05;1.27;;;10.60;99.90;;;;;;5134266;27;20404;-80
2023/12/22 01:28:18;;;;;;;4.60;1.17;;;10.60;99.90;;;;;;5134082;27;20377;-80
2023/12/22 01:30:44;;;;;;;6.50;1.30;;;10.60;99.90;;;;;;5134101;27;20080;-79
2023/12/22 01:33:10;;;;;;;5.63;1.50;;;10.70;99.90;;;;;;5133817;27;20100;-80
2023/12/22 01:35:35;;;;;;;9.60;1.58;;;10.70;99.90;;;;;;5134108;27;20026;-80
2023/12/22 01:38:01;;;;;;;3.88;1.00;;;10.70;99.90;;;;;;5133964;27;20019;-79
2023/12/22 01:40:27;;;;;;;6.53;1.50;;;10.70;99.90;;;;;;5133513;27;20034;-79
2023/12/22 01:42:53;;;;;;;8.48;1.70;;;10.80;99.90;;;;;;5133865;27;20404;-79
2023/12/22 01:45:18;;;;;;;4.25;1.10;;;10.70;99.90;;;;;;5133614;27;20023;-78
2023/12/22 01:47:46;;;;;;;6.47;1.30;;;10.70;99.90;;;;;;5134194;27;20354;-78
2023/12/22 01:50:12;;;;;;;5.78;1.13;;;10.60;99.90;;;;;;5133213;27;20023;-79
2023/12/22 01:52:40;;;;;;;4.25;1.05;;;10.60;99.90;;;;;;5115005;27;20051;-79
2023/12/22 01:55:07;;;;;;;7.85;1.23;;;10.50;99.90;;;;;;5133566;27;20436;-80
2023/12/22 01:57:34;;;;;;;5.93;1.30;;;10.50;99.90;;;;;;5133564;27;20039;-79
2023/12/22 02:00:00;;;;;;;10.90;1.75;;;10.50;99.90;;;;;;5133917;27;20376;-79
2023/12/22 02:02:27;;;;;;;7.57;1.95;;;10.40;99.90;;;;;;5133598;27;20027;-79
2023/12/22 02:04:53;;;;;;;9.68;1.60;;;10.40;99.90;;;;;;5133789;27;20037;-80
2023/12/22 02:07:19;;;;;;;12.27;1.90;;;10.40;99.90;;;;;;5133195;27;20015;-80
2023/12/22 02:09:45;;;;;;;8.70;1.83;;;10.40;99.90;;;;;;5133432;27;20316;-79
2023/12/22 02:12:10;;;;;;;9.43;2.05;;;10.40;99.90;;;;;;5133014;27;20106;-81
2023/12/22 02:14:36;;;;;;;12.80;2.40;;;10.40;99.90;;;;;;5133433;27;20019;-81
2023/12/22 02:17:24;;;;;;;8.52;2.38;;;10.40;99.90;;;;;;5133562;27;20500;-80
2023/12/22 02:19:51;;;;;;;8.75;2.35;;;10.40;99.90;;;;;;5133947;27;20100;-80
2023/12/22 02:22:16;;;;;;;14.15;2.15;;;10.40;99.90;;;;;;5133301;27;20122;-79
2023/12/22 02:24:42;;;;;;;13.40;2.15;;;10.40;99.90;;;;;;5115664;27;20023;-80
2023/12/22 02:27:42;;;;;;;13.43;2.10;;;10.40;99.90;;;;;;5133070;27;20030;-82
2023/12/22 02:30:14;;;;;;;11.93;1.80;;;10.30;99.90;;;;;;5114766;27;20027;-82
2023/12/22 02:32:43;;;;;;;9.93;2.00;;;10.30;99.90;;;;;;5115418;27;20023;-79
2023/12/22 02:35:16;;;;;;;10.45;2.53;;;10.40;99.90;;;;;;5133479;27;20038;-81
2023/12/22 02:37:42;;;;;;;17.42;3.22;;;10.30;99.90;;;;;;5133169;27;20460;-80
2023/12/22 02:40:09;;;;;;;15.63;2.85;;;10.30;99.90;;;;;;5133322;27;20456;-82
2023/12/22 02:42:37;;;;;;;12.38;2.47;;;10.20;99.90;;;;;;5133110;27;20500;-80
2023/12/22 02:45:04;;;;;;;15.95;2.92;;;10.30;99.90;;;;;;5132926;27;20447;-80
2023/12/22 02:47:32;;;;;;;13.52;2.75;;;10.30;99.90;;;;;;5132003;27;20157;-79
2023/12/22 02:49:58;;;;;;;16.80;2.80;;;10.30;99.90;;;;;;5132940;27;20055;-79
2023/12/22 02:52:24;;;;;;;17.30;2.95;;;10.30;99.90;;;;;;5132660;27;20075;-79
2023/12/22 02:54:49;;;;;;;12.80;2.78;;;10.30;99.90;;;;;;5133077;27;20026;-79
2023/12/22 02:57:15;;;;;;;15.25;3.05;;;10.30;99.90;;;;;;5132571;27;20341;-79
2023/12/22 02:59:41;;;;;;;16.52;2.67;;;10.30;99.90;;;;;;5133312;27;20507;-78
2023/12/22 03:02:07;;;;;;;12.27;2.50;;;10.30;99.90;;;;;;5132631;27;20476;-78
2023/12/22 03:04:32;;;;;;;16.42;3.05;;;10.30;99.90;;;;;;5133123;27;20141;-78
2023/12/22 03:06:58;;;;;;;15.55;2.78;;;10.20;99.90;;;;;;5133192;27;20049;-79
2023/12/22 03:09:24;;;;;;;17.85;3.10;;;10.30;99.90;;;;;;5132079;27;20440;-79
2023/12/22 03:11:51;;;;;;;13.63;2.90;;;10.20;99.90;;;;;;5114312;27;20464;-79
2023/12/22 03:14:17;;;;;;;12.82;2.65;;;10.20;99.90;;;;;;5132110;27;20333;-80
2023/12/22 03:16:43;;;;;;;12.90;2.58;;;10.30;99.90;;;;;;5132248;27;20025;-80
2023/12/22 03:19:08;;;;;;;14.10;2.70;;;10.20;99.90;;;;;;5132568;27;20138;-82
2023/12/22 03:21:34;;;;;;;18.35;3.20;;;10.20;99.90;;;;;;5132355;27;20440;-80
2023/12/22 03:24:00;;;;;;;19.23;2.95;;;10.20;99.90;;;;;;5132868;27;20020;-80
2023/12/22 03:26:28;;;;;;;23.10;3.28;;;10.20;99.90;;;;;;5132438;27;20023;-80
2023/12/22 03:28:54;;;;;;;13.95;3.08;;;10.20;99.90;;;;;;5133866;27;20098;-79
2023/12/22 03:31:20;;;;;;;16.77;3.78;;;10.10;99.90;;;;;;5113738;27;20443;-79
2023/12/22 03:33:45;;;;;;;12.95;2.67;;;10.10;99.90;;;;;;5114274;27;20125;-79
2023/12/22 03:36:11;;;;;;;13.82;2.63;;;10.10;99.90;;;;;;5132907;27;20038;-81
2023/12/22 03:38:37;;;;;;;18.52;3.03;;;10.10;99.90;;;;;;5131845;27;20382;-79
2023/12/22 03:41:03;;;;;;;20.63;2.92;;;10.10;99.90;;;;;;5113831;27;20123;-78
2023/12/22 03:43:31;;;;;;;22.30;3.45;;;10.00;99.90;;;;;;5131714;27;20030;-79
2023/12/22 03:45:56;;;;;;;14.02;2.55;;;10.00;99.90;;;;;;5132871;27;20015;-80
2023/12/22 03:48:22;;;;;;;16.88;3.00;;;10.00;99.90;;;;;;5113616;27;20023;-80
2023/12/22 03:50:48;;;;;;;17.30;2.85;;;10.00;99.90;;;;;;5132984;27;20106;-83
2023/12/22 03:53:13;;;;;;;13.57;3.30;;;10.10;99.90;;;;;;5133023;27;20460;-83
2023/12/22 03:55:39;;;;;;;23.85;3.15;;;10.10;99.90;;;;;;5133113;28;20027;-84
2023/12/22 03:58:07;;;;;;;16.27;3.05;;;10.10;99.90;;;;;;5114271;28;20027;-80
2023/12/22 04:00:33;;;;;;;21.85;3.53;;;10.20;99.90;;;;;;5131987;28;20015;-79
2023/12/22 04:02:59;;;;;;;16.20;3.60;;;10.20;99.90;;;;;;5132792;28;20038;-80
2023/12/22 04:05:24;;;;;;;22.02;3.60;;;10.20;99.90;;;;;;5113873;28;20015;-80
2023/12/22 04:07:50;;;;;;;20.77;3.28;;;10.20;99.90;;;;;;5133004;28;20094;-81
2023/12/22 04:10:19;;;;;;;16.52;3.35;;;10.20;99.90;;;;;;5132044;28;20019;-80
2023/12/22 04:12:45;;;;;;;17.70;3.30;;;10.20;99.90;;;;;;5131722;28;20114;-79
2023/12/22 04:15:11;;;;;;;14.70;3.28;;;10.30;99.90;;;;;;5131606;28;20069;-79
2023/12/22 04:17:36;;;;;;;20.17;3.50;;;10.30;99.90;;;;;;5130967;28;20023;-80
2023/12/22 04:20:03;;;;;;;19.30;3.05;;;10.30;99.90;;;;;;5131744;28;20023;-81
2023/12/22 04:22:28;;;;;;;18.55;3.58;;;10.40;99.90;;;;;;5131045;28;20351;-79
2023/12/22 04:24:54;;;;;;;16.70;3.08;;;10.40;99.90;;;;;;5131535;28;20034;-80
2023/12/22 04:27:20;;;;;;;12.52;3.13;;;10.40;99.90;;;;;;5130804;28;20019;-79
2023/12/22 04:29:46;;;;;;;13.65;2.33;;;10.40;99.90;;;;;;5113143;28;20064;-79
2023/12/22 04:32:12;;;;;;;17.60;2.75;;;10.40;99.90;;;;;;5131307;28;20590;-79
2023/12/22 04:34:38;;;;;;;13.77;2.95;;;10.40;99.90;;;;;;5132394;27;20019;-80
2023/12/22 04:37:03;;;;;;;11.80;2.65;;;10.40;99.90;;;;;;5117036;27;20027;-80
2023/12/22 04:39:29;;;;;;;13.57;2.45;;;10.40;99.90;;;;;;5135237;27;20015;-79
2023/12/22 04:41:55;;;;;;;21.80;3.00;;;10.40;99.90;;;;;;5135159;27;20168;-79
2023/12/22 04:44:20;;;;;;;17.42;2.92;;;10.40;99.90;;;;;;5134357;27;20096;-79
2023/12/22 04:46:46;;;;;;;12.43;2.60;;;10.40;99.90;;;;;;5135153;27;20026;-79
2023/12/22 04:49:12;;;;;;;12.25;2.70;;;10.40;99.90;;;;;;5135215;27;20106;-80
2023/12/22 04:51:38;;;;;;;15.25;3.15;;;10.40;99.90;;;;;;5133879;27;20050;-80
2023/12/22 04:54:03;;;;;;;14.30;2.35;;;10.40;99.90;;;;;;5135002;27;20023;-79
2023/12/22 04:56:29;;;;;;;12.90;2.70;;;10.40;99.90;;;;;;5115892;27;20030;-81
2023/12/22 04:58:55;;;;;;;16.20;2.83;;;10.40;99.90;;;;;;5134951;27;20441;-81
2023/12/22 05:01:20;;;;;;;15.95;2.88;;;10.40;99.90;;;;;;5134922;27;20027;-81
2023/12/22 05:03:46;;;;;;;12.40;2.58;;;10.40;99.90;;;;;;5134802;27;20019;-80
2023/12/22 05:06:12;;;;;;;13.43;2.72;;;10.40;99.90;;;;;;5135065;27;20019;-81
2023/12/22 05:08:38;;;;;;;12.35;2.20;;;10.40;99.90;;;;;;5115780;27;20027;-81
2023/12/22 05:11:03;;;;;;;12.88;2.38;;;10.40;99.90;;;;;;5135429;27;20048;-80
2023/12/22 05:13:29;;;;;;;8.23;2.03;;;10.40;99.90;;;;;;5115955;27;20045;-79
2023/12/22 05:15:55;;;;;;;10.57;1.92;;;10.40;99.90;;;;;;5116611;27;20041;-80
2023/12/22 05:18:21;;;;;;;9.10;2.53;;;10.50;99.90;;;;;;5133977;27;20025;-81
2023/12/22 05:20:46;;;;;;;12.93;2.22;;;10.40;99.90;;;;;;5134848;27;20465;-79
2023/12/22 05:23:12;;;;;;;13.55;2.42;;;10.50;99.90;;;;;;5134635;27;20023;-79
2023/12/22 05:25:38;;;;;;;9.57;1.92;;;10.50;99.90;;;;;;5133826;27;20068;-80
2023/12/22 05:28:03;;;;;;;11.00;2.15;;;10.50;99.90;;;;;;5134477;27;20030;-79
2023/12/22 05:30:29;;;;;;;7.35;1.80;;;10.50;99.90;;;;;;5133205;27;20011;-79
2023/12/22 05:32:55;;;;;;;11.80;1.75;;;10.50;99.90;;;;;;5133968;27;20023;-80
2023/12/22 05:35:21;;;;;;;7.20;2.10;;;10.50;99.90;;;;;;5133961;27;20347;-79
2023/12/22 05:37:47;;;;;;;11.52;1.77;;;10.50;99.90;;;;;;5134280;27;20023;-79
2023/12/22 05:40:13;;;;;;;6.18;1.60;;;10.50;99.90;;;;;;5133916;27;20011;-80
2023/12/22 05:42:39;;;;;;;7.43;1.92;;;10.50;99.90;;;;;;5133502;27;20210;-80
2023/12/22 05:45:06;;;;;;;9.95;2.10;;;10.40;99.90;;;;;;5133614;27;20023;-79
2023/12/22 05:47:32;;;;;;;9.95;2.05;;;10.40;99.90;;;;;;5114457;27;20049;-80
2023/12/22 05:49:59;;;;;;;10.73;1.90;;;10.30;99.90;;;;;;5134075;27;20054;-80
2023/12/22 05:52:24;;;;;;;11.93;2.22;;;10.20;99.90;;;;;;5133286;27;20126;-80
2023/12/22 05:54:50;;;;;;;12.80;2.67;;;10.20;99.90;;;;;;5133523;27;20106;-80
2023/12/22 05:57:16;;;;;;;7.60;1.92;;;10.10;99.90;;;;;;5115232;27;20051;-80
2023/12/22 05:59:42;;;;;;;13.05;2.55;;;10.00;99.90;;;;;;5133230;27;20027;-80
2023/12/22 06:02:08;;;;;;;10.32;1.95;;;10.00;99.90;;;;;;5115600;27;20042;-79
2023/12/22 06:04:34;;;;;;;11.35;2.22;;;10.00;99.90;;;;;;5133288;27;20023;-79
2023/12/22 06:07:00;;;;;;;12.82;2.42;;;9.90;99.90;;;;;;5116651;27;20110;-79
2023/12/22 06:09:26;;;;;;;14.25;2.20;;;9.90;99.90;;;;;;5134100;27;20046;-80
2023/12/22 06:11:52;;;;;;;12.30;2.35;;;9.90;99.90;;;;;;5134535;27;20035;-81
2023/12/22 06:14:17;;;;;;;10.95;2.20;;;9.90;99.90;;;;;;5133493;27;20033;-81
2023/12/22 06:16:43;;;;;;;14.07;2.45;;;9.90;99.90;;;;;;5133146;27;20094;-80
2023/12/22 06:19:10;;;;;;;18.33;2.83;;;10.00;99.90;;;;;;5133594;27;20019;-80
2023/12/22 06:21:39;;;;;;;11.60;1.80;;;10.00;99.90;;;;;;5133154;27;20102;-81
2023/12/22 06:24:05;;;;;;;10.18;2.58;;;10.00;99.90;;;;;;5133442;27;20477;-77
2023/12/22 06:26:31;;;;;;;8.25;1.85;;;10.00;99.90;;;;;;5132474;27;20026;-80
2023/12/22 06:28:57;;;;;;;10.40;1.90;;;10.00;99.90;;;;;;5133157;27;20023;-81
2023/12/22 06:31:23;;;;;;;9.90;1.77;;;10.00;99.90;;;;;;5132783;27;20019;-81
2023/12/22 06:33:49;;;;;;;14.85;1.92;;;10.00;99.90;;;;;;5133030;27;20168;-80
2023/12/22 06:36:23;;;;;;;11.88;2.28;;;10.00;99.90;;;;;;5133511;27;20011;-80
2023/12/22 06:38:53;;;;;;;15.13;2.10;;;10.00;99.90;;;;;;5133463;27;20022;-81
2023/12/22 06:41:30;;;;;;;10.73;3.00;;;10.00;99.90;;;;;;5133081;27;20438;-80
2023/12/22 06:43:59;;;;;;;16.67;3.30;;;10.00;99.90;;;;;;5133517;27;20069;-78
2023/12/22 06:46:25;;;;;;;18.92;3.40;;;10.00;99.90;;;;;;5132239;27;20467;-80
2023/12/22 06:48:52;;;;;;;18.02;2.90;;;10.00;99.90;;;;;;5132413;27;20091;-80
2023/12/22 06:51:22;;;;;;;14.68;2.88;;;10.00;99.90;;;;;;5132771;27;20030;-80
2023/12/22 06:53:49;;;;;;;17.50;2.90;;;10.00;99.90;;;;;;5132655;27;20038;-80
2023/12/22 06:56:20;;;;;;;19.45;3.30;;;10.00;99.90;;;;;;5132318;27;20052;-81
2023/12/22 06:58:48;;;;;;;18.13;3.13;;;10.00;99.90;;;;;;5096040;27;20030;-79
2023/12/22 07:01:26;;;;;;;16.63;2.75;;;10.00;99.90;;;;;;5115562;27;20062;-81
2023/12/22 07:03:52;;;;;;;19.50;3.30;;;10.00;99.90;;;;;;5133484;27;20051;-81
2023/12/22 07:06:19;;;;;;;18.67;3.42;;;10.10;99.90;;;;;;5131620;27;20046;-80
2023/12/22 07:09:03;;;;;;;10.38;2.42;;;10.10;99.90;;;;;;5131889;27;20173;-80
2023/12/22 07:11:29;;;;;;;22.55;3.90;;;10.10;99.90;;;;;;5132717;27;20015;-81
2023/12/22 07:13:55;;;;;;;15.55;2.70;;;10.10;99.90;;;;;;5132263;27;20031;-79
2023/12/22 07:16:21;;;;;;;13.82;2.80;;;10.10;99.90;;;;;;5132634;27;20127;-80
2023/12/22 07:18:46;;;;;;;13.40;3.00;;;10.10;99.90;;;;;;5131456;27;20020;-80
2023/12/22 07:21:17;;;;;;;21.23;4.35;;;10.10;99.90;;;;;;5131837;27;20026;-80
2023/12/22 07:23:44;;;;;;;17.63;3.28;;;10.10;99.90;;;;;;5131526;27;20367;-80
2023/12/22 07:26:10;;;;;;;14.70;3.53;;;10.10;99.90;;;;;;5113620;27;20086;-80
2023/12/22 07:28:36;;;;;;;15.00;2.67;;;10.10;99.90;;;;;;5131603;27;20021;-80
2023/12/22 07:31:02;;;;;;;15.40;3.30;;;10.20;99.90;;;;;;5113663;27;20393;-80
2023/12/22 07:33:28;;;;;;;14.95;2.60;;;10.10;99.90;;;;;;5131012;27;20365;-81
2023/12/22 07:35:54;;;;;;;24.02;4.97;;;10.10;99.90;;;;;;5131911;27;20455;-80
2023/12/22 07:38:20;;;;;;;16.38;3.70;;;10.20;99.90;;;;;;5113414;27;20312;-80
2023/12/22 07:40:46;;;;;;;19.65;3.63;;;10.10;99.90;;;;;;5130968;27;20087;-80
2023/12/22 07:43:13;;;;;;;15.90;3.65;;;10.10;99.90;;;;;;5131448;27;20044;-79
2023/12/22 07:45:38;;;;;;;20.35;3.72;;;10.10;99.90;;;;;;5130731;27;20069;-81
2023/12/22 07:48:04;;;;;;;19.35;2.95;;;10.10;99.90;;;;;;5131778;27;20053;-80
2023/12/22 07:50:30;;;;;;;17.92;3.40;;;10.00;99.90;;;;;;5130885;27;20019;-81
2023/12/22 07:52:56;;;;;;;19.40;3.47;;;10.00;99.90;;;;;;5130939;27;20062;-80
2023/12/22 07:55:21;;;;;;;16.02;3.67;;;10.00;99.90;;;;;;5112906;28;20352;-79
2023/12/22 07:57:47;;;;;;;15.52;3.95;;;10.00;99.90;;;;;;5130795;28;20088;-79
2023/12/22 08:00:13;;;;;;;15.57;3.45;;;10.00;99.90;;;;;;5131316;28;20019;-80
2023/12/22 08:02:39;;;;;;;20.58;4.63;;;10.00;99.90;;;;;;5130724;28;20029;-80
2023/12/22 08:05:05;;;;;;;20.25;3.70;;;10.00;99.90;;;;;;5131517;28;20102;-79
2023/12/22 08:07:31;;;;;;;16.15;3.47;;;10.10;99.90;;;;;;5130147;28;20024;-80
2023/12/22 08:09:57;;;;;;;21.00;4.30;;;10.10;99.90;;;;;;5135528;27;20112;-80
2023/12/22 08:12:23;;;;;;;20.30;3.80;;;10.10;99.90;;;;;;5135567;27;20027;-79
2023/12/22 08:14:48;;;;;;;22.65;3.70;;;10.10;99.90;;;;;;5134951;27;20030;-79
2023/12/22 08:17:14;;;;;;;16.95;3.75;;;10.00;99.90;;;;;;5116670;27;20068;-80
2023/12/22 08:19:43;;;;;;;19.95;3.90;;;10.00;99.90;;;;;;5116114;27;20019;-80
2023/12/22 08:22:15;;;;;;;19.13;3.72;;;9.90;99.90;;;;;;5134939;27;20416;-78
2023/12/22 08:24:41;;;;;;;16.25;4.07;;;9.90;99.90;;;;;;5134858;27;20076;-78
2023/12/22 08:27:07;;;;;;;19.30;3.67;;;9.90;99.90;;;;;;5135260;27;20058;-77
2023/12/22 08:29:33;;;;;;;20.33;4.32;;;9.90;99.90;;;;;;5134566;27;20030;-78
2023/12/22 08:32:00;;;;;;;24.52;3.97;;;9.90;99.90;;;;;;5135431;27;20027;-79
2023/12/22 08:34:26;;;;;;;19.65;3.88;;;9.90;99.90;;;;;;5134989;27;20019;-80
2023/12/22 08:36:52;;;;;;;23.02;4.85;;;9.90;99.90;;;;;;5134532;27;20035;-79
2023/12/22 08:39:17;;;;;;;21.08;3.55;;;9.80;99.90;;;;;;5135238;27;20023;-79
2023/12/22 08:41:44;;;;;;;18.48;3.83;;;9.80;99.90;;;;;;5134179;27;20026;-80
2023/12/22 08:44:10;;;;;;;16.00;3.40;;;9.80;99.90;;;;;;5116578;27;20031;-78
2023/12/22 08:46:36;;;;;;;22.58;3.83;;;9.80;99.90;;;;;;5134588;27;20023;-81
2023/12/22 08:49:02;;;;;;;27.55;4.93;;;9.80;99.90;;;;;;5134467;27;20452;-79
2023/12/22 08:51:28;;;;;;;13.98;3.22;;;9.90;99.90;;;;;;5116518;27;20375;-79
2023/12/22 08:53:55;;;;;;;21.23;3.42;;;9.90;99.90;;;;;;5116140;27;20031;-80
2023/12/22 08:56:23;;;;;;;20.05;3.63;;;9.90;99.90;;;;;;5134897;27;20019;-79
2023/12/22 08:58:51;;;;;;;15.82;3.35;;;10.00;99.90;;;;;;5134624;27;20042;-79
2023/12/22 09:01:18;;;;;;;17.35;3.35;;;10.00;99.90;;;;;;5134338;27;20015;-80
2023/12/22 09:03:46;;;;;;;18.95;3.47;;;10.00;99.90;;;;;;5133984;27;20030;-79
2023/12/22 09:06:15;;;;;;;14.55;3.00;;;10.00;99.90;;;;;;5133920;27;20019;-79
2023/12/22 09:08:42;;;;;;;20.80;3.45;;;10.00;99.90;;;;;;5133796;27;20011;-78
2023/12/22 09:11:08;;;;;;;22.65;3.72;;;10.00;99.90;;;;;;5116451;27;20432;-79
2023/12/22 09:13:35;;;;;;;21.55;3.65;;;10.00;99.90;;;;;;5133942;27;20054;-80
2023/12/22 09:16:02;;;;;;;18.77;3.38;;;10.00;99.90;;;;;;5136443;27;20023;-79
2023/12/22 09:18:28;;;;;;;16.25;3.30;;;10.00;99.90;;;;;;5134898;27;20087;-81
2023/12/22 09:20:54;;;;;;;13.00;3.25;;;10.00;99.90;;;;;;5133850;27;20038;-81
2023/12/22 09:23:21;;;;;;;15.35;3.15;;;10.00;99.90;;;;;;5135343;27;20023;-82
2023/12/22 09:25:47;;;;;;;18.83;3.45;;;10.00;99.90;;;;;;5134890;27;20030;-82
2023/12/22 09:28:12;;;;;;;17.20;3.25;;;10.00;99.90;;;;;;5117014;27;20080;-81
2023/12/22 09:30:38;;;;;;;22.27;4.13;;;10.00;99.90;;;;;;5134430;27;20031;-80
2023/12/22 09:33:04;;;;;;;16.17;3.20;;;10.00;99.90;;;;;;5134350;27;20425;-78
2023/12/22 09:35:30;;;;;;;14.63;2.88;;;10.00;99.90;;;;;;5134930;27;20094;-80
2023/12/22 09:37:55;;;;;;;16.05;3.47;;;10.00;99.90;;;;;;5133482;27;20027;-81
2023/12/22 09:40:24;;;;;;;14.38;3.17;;;10.00;99.90;;;;;;5136419;27;20019;-82
2023/12/22 09:42:53;;;;;;;21.30;3.47;;;10.00;99.90;;;;;;5138159;27;20050;-82
2023/12/22 09:45:20;;;;;;;15.65;3.33;;;10.00;99.90;;;;;;5137128;27;20023;-82
2023/12/22 09:47:48;;;;;;;17.05;3.10;;;10.00;99.90;;;;;;5136302;27;20011;-82
2023/12/22 09:50:15;;;;;;;11.45;3.00;;;10.00;99.90;;;;;;5135639;27;20015;-81
2023/12/22 09:52:45;;;;;;;16.83;3.67;;;10.00;99.90;;;;;;5115032;27;20039;-83
2023/12/22 09:55:14;;;;;;;14.27;3.33;;;10.00;99.90;;;;;;5134292;27;20030;-82
2023/12/22 09:57:42;;;;;;;13.25;3.08;;;10.00;99.90;;;;;;5133464;27;20019;-81
2023/12/22 10:00:12;;;;;;;21.83;3.20;;;10.00;99.90;;;;;;5133835;27;20027;-81
2023/12/22 10:02:39;;;;;;;22.63;2.97;;;10.10;99.90;;;;;;5133133;27;20476;-81
2023/12/22 10:05:05;;;;;;;20.77;3.13;;;10.10;99.90;;;;;;5114872;27;20029;-80
2023/12/22 10:07:31;;;;;;;15.52;3.10;;;10.20;99.90;;;;;;5133416;27;20364;-80
2023/12/22 10:09:58;;;;;;;20.15;2.90;;;10.20;99.90;;;;;;5132681;27;20604;-81
2023/12/22 10:12:26;;;;;;;12.38;3.17;;;10.20;99.90;;;;;;5134648;27;20027;-81
2023/12/22 10:14:54;;;;;;;15.20;2.58;;;10.20;99.90;;;;;;5133598;27;20479;-80
2023/12/22 10:17:20;;;;;;;20.02;3.15;;;10.20;99.90;;;;;;5134039;27;20023;-80
2023/12/22 10:19:45;;;;;;;16.65;2.92;;;10.20;99.90;;;;;;5133612;27;20084;-80
2023/12/22 10:22:11;;;;;;;9.50;2.40;;;10.30;99.90;;;;;;5115379;27;20387;-78
2023/12/22 10:24:44;;;;;;;12.15;2.90;;;10.30;99.90;;;;;;5134001;27;20051;-83
2023/12/22 10:27:11;;;;;;;14.57;2.75;;;10.30;99.90;;;;;;5115431;27;20051;-81
2023/12/22 10:29:37;;;;;;;13.48;3.42;;;10.30;99.90;;;;;;5114632;27;20019;-83
2023/12/22 10:32:04;;;;;;;13.13;2.80;;;10.30;99.90;;;;;;5132004;27;20126;-81
2023/12/22 10:34:31;;;;;;;16.25;3.13;;;10.30;99.90;;;;;;5115502;27;20073;-80
2023/12/22 10:36:59;;;;;;;19.10;3.55;;;10.40;99.90;;;;;;5133623;27;20106;-80
2023/12/22 10:39:31;;;;;;;16.45;3.22;;;10.40;99.90;;;;;;5133962;27;20027;-80
2023/12/22 10:41:58;;;;;;;18.10;3.60;;;10.40;99.90;;;;;;5133487;27;20015;-80
2023/12/22 10:44:28;;;;;;;21.52;3.72;;;10.50;99.90;;;;;;5115070;27;20247;-80
2023/12/22 10:46:54;;;;;;;16.38;3.42;;;10.50;99.90;;;;;;5133068;27;20038;-81
2023/12/22 10:49:21;;;;;;;15.95;2.92;;;10.60;99.90;;;;;;5132956;27;20397;-81
2023/12/22 10:51:47;;;;;;;16.02;3.45;;;10.60;99.90;;;;;;5132674;27;20046;-82
2023/12/22 10:54:13;;;;;;;15.20;3.45;;;10.60;99.90;;;;;;5114402;27;20110;-81
2023/12/22 10:56:40;;;;;;;16.88;3.50;;;10.70;99.90;;;;;;5133632;27;20110;-83
2023/12/22 10:59:06;;;;;;;14.30;2.80;;;10.60;99.90;;;;;;5115092;27;20030;-81
2023/12/22 11:01:38;;;;;;;13.57;2.92;;;10.70;99.90;;;;;;5133396;27;20023;-81
2023/12/22 11:04:06;;;;;;;14.77;3.83;;;10.70;99.90;;;;;;5114083;27;20027;-80
2023/12/22 11:06:36;;;;;;;11.98;2.75;;;10.70;99.90;;;;;;5133001;27;20373;-81
2023/12/22 11:09:10;;;;;;;20.80;2.88;;;10.70;99.90;;;;;;5132147;27;20023;-80
2023/12/22 11:11:40;;;;;;;18.42;3.20;;;10.60;99.90;;;;;;5133178;27;20091;-80
2023/12/22 11:14:07;;;;;;;17.98;3.10;;;10.70;99.90;;;;;;5132629;27;20106;-80
2023/12/22 11:16:35;;;;;;;15.50;2.75;;;10.70;99.90;;;;;;5132864;27;20379;-80
2023/12/22 11:19:02;;;;;;;12.00;2.83;;;10.70;99.90;;;;;;5132059;27;20031;-80
2023/12/22 11:21:28;;;;;;;13.38;2.75;;;10.70;99.90;;;;;;5132282;27;20023;-80
2023/12/22 11:23:55;;;;;;;13.13;2.65;;;10.80;99.90;;;;;;5112732;27;20023;-80
2023/12/22 11:26:22;;;;;;;15.60;2.70;;;10.80;99.90;;;;;;5132245;27;20138;-79
2023/12/22 11:28:52;;;;;;;14.32;3.13;;;10.80;99.90;;;;;;5131483;27;20156;-80
2023/12/22 11:31:18;;;;;;;17.77;2.80;;;10.80;99.90;;;;;;5132353;27;20117;-81
2023/12/22 11:33:47;;;;;;;13.73;3.20;;;10.80;99.90;;;;;;5131165;27;20025;-81
2023/12/22 11:36:14;;;;;;;14.98;3.05;;;10.90;99.90;;;;;;5131705;27;20055;-80
2023/12/22 11:38:41;;;;;;;17.15;3.28;;;10.90;99.90;;;;;;5131587;27;20459;-80
2023/12/22 11:41:14;;;;;;;10.35;2.33;;;10.90;99.90;;;;;;5131819;27;20453;-80
2023/12/22 11:43:40;;;;;;;12.30;3.03;;;10.90;99.90;;;;;;5131499;27;20028;-81
2023/12/22 11:46:06;;;;;;;13.18;2.70;;;10.80;99.90;;;;;;5131220;27;20099;-80
2023/12/22 11:48:32;;;;;;;21.55;3.08;;;10.90;99.90;;;;;;5131958;27;20106;-80
2023/12/22 11:50:58;;;;;;;9.52;2.13;;;10.90;99.90;;;;;;5130561;27;20030;-81
2023/12/22 11:53:30;;;;;;;18.23;3.22;;;10.90;99.90;;;;;;5131855;27;20050;-81
2023/12/22 11:55:58;;;;;;;15.25;3.00;;;11.00;99.90;;;;;;5131079;27;20031;-80
2023/12/22 11:58:42;;;;;;;13.18;2.50;;;11.00;99.90;;;;;;5131662;28;20068;-80
2023/12/22 12:01:12;;;;;;;11.80;2.28;;;11.00;99.90;;;;;;5131120;28;20439;-80
2023/12/22 12:03:47;;;;;;;10.52;2.72;;;11.00;99.90;;;;;;5131130;28;20216;-80
2023/12/22 12:06:34;;;;;;;10.93;2.35;;;11.00;99.90;;;;;;5131195;28;20535;-80
2023/12/22 12:09:03;;;;;;;11.70;2.50;;;11.10;99.90;;;;;;5131334;28;20130;-81
2023/12/22 12:12:01;;;;;;;11.15;2.80;;;11.00;99.90;;;;;;5113459;28;20034;-80
2023/12/22 12:14:33;;;;;;;12.68;2.60;;;11.10;99.90;;;;;;5112623;28;20038;-80
2023/12/22 12:17:07;;;;;;;13.45;2.78;;;11.10;99.90;;;;;;5130720;28;20019;-80
2023/12/22 12:19:35;;;;;;;10.23;2.08;;;11.00;99.90;;;;;;5112498;28;20023;-80
2023/12/22 12:22:01;;;;;;;10.95;2.30;;;11.00;99.90;;;;;;5131096;28;20011;-80
2023/12/22 12:24:27;;;;;;;11.30;2.72;;;11.00;99.90;;;;;;5131273;28;20042;-81
2023/12/22 12:26:52;;;;;;;12.18;2.42;;;11.00;99.90;;;;;;5130682;28;20058;-81
2023/12/22 12:29:20;;;;;;;12.95;2.92;;;11.00;99.90;;;;;;5131530;28;20023;-83
2023/12/22 12:31:46;;;;;;;13.20;1.92;;;11.00;99.90;;;;;;5131021;28;20094;-84
2023/12/22 12:34:14;;;;;;;12.07;2.05;;;11.00;99.90;;;;;;5131090;28;20107;-81
2023/12/22 12:36:40;;;;;;;10.85;2.63;;;11.00;99.90;;;;;;5131272;28;20015;-81
2023/12/22 12:39:07;;;;;;;15.77;2.45;;;11.00;99.90;;;;;;5131257;28;20084;-79